• Join FlightAware (Why Join?)
  • Login
  • US Flag 
09:33AM EDT


 

Airport Tracker/Info


-or-


 

Live Flight TrackerFlight Track Log ✈ QLK377D ✈ 16-Jul-2013 ✈ YHBA / HVB - YBBN / BNE

Flight Track Log - Related Links

Times and Time Zones

All times are in EDT time to prevent confusion due to time zone crossing. See the QLK377D flight status page for this flight to view local times or setup timezone preferences in your user account.

Time Position Orientation Groundspeed Altitude Reporting Facility
EDT Latitude Longitude Course Direction KTS MPH feet Rate Location/Type
10:11PM -25.3188 152.8803 231° Southwest 11,000  Level Aus ATC (Calculated)
10:12PM -25.3307 152.8641 210° Southwest 227 261 6,300 -2,400 Descending Aus ATC (RADAR)
10:13PM -25.3660 152.8417 210° Southwest 235 270 7,900 2,700 Climbing Aus ATC (RADAR)
10:13PM -25.3988 152.8155 216° Southwest 238 274 9,500 2,640 Climbing Aus ATC (RADAR)
10:14PM -25.4318 152.7847 220° Southwest 248 285 11,000 2,280 Climbing Aus ATC (RADAR)
10:14PM -25.4641 152.7571 218° Southwest 250 288 12,200 1,980 Climbing Aus ATC (RADAR)
10:16PM -25.5656 152.7093 203° Southwest 277 319 15,300 1,260 Climbing Aus ATC (RADAR)
10:17PM -25.6329 152.6903 194° South 306 352 15,300  Level Aus ATC (RADAR)
10:18PM -25.7089 152.6679 195° South 341 392 15,300  Level Aus ATC (RADAR)
10:18PM -25.7632 152.6513 195° South 351 404 15,300  Level Aus ATC (RADAR)
10:19PM -25.8336 152.6316 194° South 349 402 15,300  Level Aus ATC (RADAR)
10:20PM -25.9845 152.6482 174° South 342 394 15,300  Level Aus ATC (RADAR)
10:21PM -26.0795 152.6609 173° South 344 396 15,300  Level Aus ATC (RADAR)
10:22PM -26.1497 152.6754 170° South 341 392 15,300  Level Aus ATC (RADAR)
10:23PM -26.2043 152.6848 171° South 342 394 15,300  Level Aus ATC (RADAR)
10:24PM -26.2743 152.6982 170° South 339 390 15,300  Level Aus ATC (RADAR)
10:25PM -26.3670 152.7144 171° South 336 387 15,300  Level Aus ATC (RADAR)
10:26PM -26.4836 152.7208 177° South 340 391 15,300  Level Aus ATC (RADAR)
10:27PM -26.5683 152.7337 172° South 333 383 15,300  Level Aus ATC (RADAR)
10:27PM -26.6297 152.7439 172° South 335 386 15,300 -360 Level Aus ATC (RADAR)
10:28PM -26.6906 152.7416 182° South 328 377 14,900 -1,140 Descending Aus ATC (RADAR)
10:29PM -26.7597 152.7365 184° South 328 377 13,700 -1,620 Descending Aus ATC (RADAR)
10:29PM -26.8118 152.7321 184° South 321 369 12,800 -1,380 Descending Aus ATC (RADAR)
10:30PM -26.8833 152.7238 186° South 306 352 11,800 -1,140 Descending Aus ATC (RADAR)
10:31PM -26.9228 152.7305 171° South 290 334 11,300 -960 Descending Aus ATC (RADAR)
10:32PM -26.9970 152.7393 174° South 266 306 10,400 -1,080 Descending Aus ATC (RADAR)
10:32PM -27.0389 152.7775 141° Southeast 260 299 9,500 -1,440 Descending Aus ATC (RADAR)
10:33PM -27.0674 152.8156 130° Southeast 266 306 8,500 -1,680 Descending Aus ATC (RADAR)
10:34PM -27.0953 152.8524 130° Southeast 259 298 7,600 -1,560 Descending Aus ATC (RADAR)
10:34PM -27.1197 152.8892 127° Southeast 247 284 6,700 -1,680 Descending Aus ATC (RADAR)
10:35PM -27.1451 152.9222 131° Southeast 235 270 5,700 -1,740 Descending Aus ATC (RADAR)
10:36PM -27.1802 152.9709 129° Southeast 238 274 4,300 -1,380 Descending Aus ATC (RADAR)
10:37PM -27.2257 153.0252 133° Southeast 231 266 3,200 -1,080 Descending Aus ATC (RADAR)
10:37PM -27.2624 153.0528 146° Southeast 207 238 2,500 -1,080 Descending Aus ATC (RADAR)
10:38PM -27.2894 153.0733 146° Southeast 170 196 1,700 -1,020 Descending Aus ATC (RADAR)
10:39PM -27.3156 153.0936 146° Southeast 148 170 1,100 -840 Descending Aus ATC (RADAR)
10:40PM -27.3464 153.1170 146° Southeast 127 146 300 -840 Descending Aus ATC (RADAR)